Terminal Aerodrome Forecast
Issued by NWS

Home | Current Version | Previous Version | Text Only | Print | Product List | Glossary On
Versions: 1 2 3 4 5 6 7 8 9 10 11 12 13 14 15 16
310
FTUS45 KRIW 291636 AAA
TAFWRL
TAF AMD
KWRL 291636Z 2917/3012 VRB05KT P6SM SCT025 SCT040
      TEMPO 2917/2918 BKN025
     FM291800 VRB06KT P6SM SCT050 SCT100
     FM300200 17006KT P6SM SCT100=

USA.gov is the U.S. government's official web portal to all federal, state and local government web resources and services.